sensor_id;sensor_type;location;lat;lon;timestamp;temperature;humidity
54202;DHT22;40108;53.152;5.844;2023-06-01T00:01:14;11.30;87.60
54202;DHT22;40108;53.152;5.844;2023-06-01T00:03:41;11.30;87.70
54202;DHT22;40108;53.152;5.844;2023-06-01T00:06:10;11.30;87.60
54202;DHT22;40108;53.152;5.844;2023-06-01T00:08:36;11.30;87.70
54202;DHT22;40108;53.152;5.844;2023-06-01T00:11:01;11.30;88.10
54202;DHT22;40108;53.152;5.844;2023-06-01T00:17:53;11.30;88.20
54202;DHT22;40108;53.152;5.844;2023-06-01T00:20:19;11.40;88.00
54202;DHT22;40108;53.152;5.844;2023-06-01T00:22:44;11.30;88.00
54202;DHT22;40108;53.152;5.844;2023-06-01T00:25:10;11.30;88.00
54202;DHT22;40108;53.152;5.844;2023-06-01T00:27:39;11.30;88.10
54202;DHT22;40108;53.152;5.844;2023-06-01T00:30:06;11.30;88.00
54202;DHT22;40108;53.152;5.844;2023-06-01T00:32:32;11.30;87.90
54202;DHT22;40108;53.152;5.844;2023-06-01T00:34:57;11.20;87.70
54202;DHT22;40108;53.152;5.844;2023-06-01T00:37:26;11.20;87.40
54202;DHT22;40108;53.152;5.844;2023-06-01T00:43:36;11.20;87.60
54202;DHT22;40108;53.152;5.844;2023-06-01T00:49:42;11.20;87.50
54202;DHT22;40108;53.152;5.844;2023-06-01T00:52:08;11.20;87.60
54202;DHT22;40108;53.152;5.844;2023-06-01T00:54:34;11.10;87.60
54202;DHT22;40108;53.152;5.844;2023-06-01T00:57:00;11.20;87.50
54202;DHT22;40108;53.152;5.844;2023-06-01T00:59:27;11.20;87.80
54202;DHT22;40108;53.152;5.844;2023-06-01T01:01:53;11.20;87.70
54202;DHT22;40108;53.152;5.844;2023-06-01T01:04:18;11.10;87.60
54202;DHT22;40108;53.152;5.844;2023-06-01T01:14:01;11.10;87.90
54202;DHT22;40108;53.152;5.844;2023-06-01T01:19:53;11.20;88.30
54202;DHT22;40108;53.152;5.844;2023-06-01T01:28:43;11.20;88.20
54202;DHT22;40108;53.152;5.844;2023-06-01T01:31:32;11.20;88.30
54202;DHT22;40108;53.152;5.844;2023-06-01T01:34:00;11.20;88.30
54202;DHT22;40108;53.152;5.844;2023-06-01T01:36:46;11.20;88.20
54202;DHT22;40108;53.152;5.844;2023-06-01T01:43:08;11.20;87.60
54202;DHT22;40108;53.152;5.844;2023-06-01T01:45:34;11.20;87.40
54202;DHT22;40108;53.152;5.844;2023-06-01T01:48:11;11.10;87.40
54202;DHT22;40108;53.152;5.844;2023-06-01T01:50:52;11.10;87.50
54202;DHT22;40108;53.152;5.844;2023-06-01T01:53:20;11.10;87.50
54202;DHT22;40108;53.152;5.844;2023-06-01T01:55:49;11.10;87.30
54202;DHT22;40108;53.152;5.844;2023-06-01T01:58:15;11.10;87.20
54202;DHT22;40108;53.152;5.844;2023-06-01T02:00:44;11.10;87.20
54202;DHT22;40108;53.152;5.844;2023-06-01T02:06:39;11.10;87.40
54202;DHT22;40108;53.152;5.844;2023-06-01T02:09:05;11.10;87.50
54202;DHT22;40108;53.152;5.844;2023-06-01T02:15:14;11.10;87.60
54202;DHT22;40108;53.152;5.844;2023-06-01T02:17:40;11.10;87.60
54202;DHT22;40108;53.152;5.844;2023-06-01T02:20:06;11.10;87.30
54202;DHT22;40108;53.152;5.844;2023-06-01T02:22:32;11.10;87.30
54202;DHT22;40108;53.152;5.844;2023-06-01T02:28:40;11.10;87.50
54202;DHT22;40108;53.152;5.844;2023-06-01T02:31:09;11.10;87.40
54202;DHT22;40108;53.152;5.844;2023-06-01T02:33:35;11.10;87.40
54202;DHT22;40108;53.152;5.844;2023-06-01T02:36:01;11.10;87.00
54202;DHT22;40108;53.152;5.844;2023-06-01T02:38:27;11.10;86.90
54202;DHT22;40108;53.152;5.844;2023-06-01T02:40:55;11.00;86.70
54202;DHT22;40108;53.152;5.844;2023-06-01T02:43:20;11.10;86.80
54202;DHT22;40108;53.152;5.844;2023-06-01T02:45:46;11.00;86.80
54202;DHT22;40108;53.152;5.844;2023-06-01T02:51:56;11.10;86.90
54202;DHT22;40108;53.152;5.844;2023-06-01T02:54:21;11.10;87.00
54202;DHT22;40108;53.152;5.844;2023-06-01T02:56:47;11.10;86.80
54202;DHT22;40108;53.152;5.844;2023-06-01T02:59:13;11.10;86.80
54202;DHT22;40108;53.152;5.844;2023-06-01T03:01:38;11.10;86.80
54202;DHT22;40108;53.152;5.844;2023-06-01T03:04:04;11.00;86.90
54202;DHT22;40108;53.152;5.844;2023-06-01T03:06:30;11.10;87.00
54202;DHT22;40108;53.152;5.844;2023-06-01T03:08:58;11.10;87.10
54202;DHT22;40108;53.152;5.844;2023-06-01T03:11:24;11.10;87.20
54202;DHT22;40108;53.152;5.844;2023-06-01T03:13:50;11.10;87.30
54202;DHT22;40108;53.152;5.844;2023-06-01T03:16:16;11.10;87.30
54202;DHT22;40108;53.152;5.844;2023-06-01T03:18:42;11.10;87.30
54202;DHT22;40108;53.152;5.844;2023-06-01T03:21:08;11.10;87.10
54202;DHT22;40108;53.152;5.844;2023-06-01T03:23:33;11.10;87.10
54202;DHT22;40108;53.152;5.844;2023-06-01T03:25:59;11.10;87.00
54202;DHT22;40108;53.152;5.844;2023-06-01T03:28:25;11.10;87.00
54202;DHT22;40108;53.152;5.844;2023-06-01T03:30:51;11.10;87.10
54202;DHT22;40108;53.152;5.844;2023-06-01T03:36:58;11.10;87.00
54202;DHT22;40108;53.152;5.844;2023-06-01T03:39:24;11.10;86.90
54202;DHT22;40108;53.152;5.844;2023-06-01T03:41:50;11.20;86.30
54202;DHT22;40108;53.152;5.844;2023-06-01T03:44:16;11.10;86.40
54202;DHT22;40108;53.152;5.844;2023-06-01T03:50:24;11.10;86.30
54202;DHT22;40108;53.152;5.844;2023-06-01T03:56:42;11.20;86.50
54202;DHT22;40108;53.152;5.844;2023-06-01T03:59:10;11.20;86.60
54202;DHT22;40108;53.152;5.844;2023-06-01T04:01:36;11.20;86.60
54202;DHT22;40108;53.152;5.844;2023-06-01T04:04:05;11.10;86.50
54202;DHT22;40108;53.152;5.844;2023-06-01T04:10:22;11.20;86.80
54202;DHT22;40108;53.152;5.844;2023-06-01T04:12:49;11.20;86.90
54202;DHT22;40108;53.152;5.844;2023-06-01T04:15:16;11.20;86.90
54202;DHT22;40108;53.152;5.844;2023-06-01T04:17:49;11.20;86.90
54202;DHT22;40108;53.152;5.844;2023-06-01T04:20:16;11.20;86.40
54202;DHT22;40108;53.152;5.844;2023-06-01T04:22:43;11.20;86.30
54202;DHT22;40108;53.152;5.844;2023-06-01T04:25:14;11.20;86.10
54202;DHT22;40108;53.152;5.844;2023-06-01T04:27:44;11.20;86.10
54202;DHT22;40108;53.152;5.844;2023-06-01T04:30:12;11.20;86.10
54202;DHT22;40108;53.152;5.844;2023-06-01T04:32:39;11.30;86.20
54202;DHT22;40108;53.152;5.844;2023-06-01T04:35:06;11.30;86.30
54202;DHT22;40108;53.152;5.844;2023-06-01T04:37:33;11.30;86.10
54202;DHT22;40108;53.152;5.844;2023-06-01T04:40:04;11.30;85.80
54202;DHT22;40108;53.152;5.844;2023-06-01T04:42:38;11.30;85.70
54202;DHT22;40108;53.152;5.844;2023-06-01T04:45:05;11.30;85.50
54202;DHT22;40108;53.152;5.844;2023-06-01T04:47:33;11.30;85.20
54202;DHT22;40108;53.152;5.844;2023-06-01T04:50:10;11.40;85.20
54202;DHT22;40108;53.152;5.844;2023-06-01T04:52:37;11.30;84.80
54202;DHT22;40108;53.152;5.844;2023-06-01T04:55:04;11.30;84.80
54202;DHT22;40108;53.152;5.844;2023-06-01T04:57:36;11.30;84.90
54202;DHT22;40108;53.152;5.844;2023-06-01T05:00:05;11.30;84.90
54202;DHT22;40108;53.152;5.844;2023-06-01T05:02:34;11.30;85.10
54202;DHT22;40108;53.152;5.844;2023-06-01T05:05:00;11.30;85.40
54202;DHT22;40108;53.152;5.844;2023-06-01T05:07:26;11.30;85.30
54202;DHT22;40108;53.152;5.844;2023-06-01T05:09:51;11.40;85.50
54202;DHT22;40108;53.152;5.844;2023-06-01T05:12:19;11.40;85.60
54202;DHT22;40108;53.152;5.844;2023-06-01T05:14:45;11.40;85.80
54202;DHT22;40108;53.152;5.844;2023-06-01T05:17:10;11.50;85.60
54202;DHT22;40108;53.152;5.844;2023-06-01T05:19:36;11.50;85.80
54202;DHT22;40108;53.152;5.844;2023-06-01T05:22:02;11.50;85.70
54202;DHT22;40108;53.152;5.844;2023-06-01T05:24:28;11.50;85.60
54202;DHT22;40108;53.152;5.844;2023-06-01T05:26:53;11.60;85.60
54202;DHT22;40108;53.152;5.844;2023-06-01T05:36:42;11.60;85.40
54202;DHT22;40108;53.152;5.844;2023-06-01T05:39:07;11.60;85.40
54202;DHT22;40108;53.152;5.844;2023-06-01T05:45:45;11.70;85.50
54202;DHT22;40108;53.152;5.844;2023-06-01T05:48:10;11.70;85.70
54202;DHT22;40108;53.152;5.844;2023-06-01T05:50:39;11.70;85.30
54202;DHT22;40108;53.152;5.844;2023-06-01T05:53:09;11.70;85.00
54202;DHT22;40108;53.152;5.844;2023-06-01T05:55:35;11.70;84.80
54202;DHT22;40108;53.152;5.844;2023-06-01T05:58:01;11.70;84.50
54202;DHT22;40108;53.152;5.844;2023-06-01T06:00:27;11.70;84.30
54202;DHT22;40108;53.152;5.844;2023-06-01T06:06:34;11.70;84.60
54202;DHT22;40108;53.152;5.844;2023-06-01T06:09:01;11.80;84.10
54202;DHT22;40108;53.152;5.844;2023-06-01T06:11:27;11.80;84.10
54202;DHT22;40108;53.152;5.844;2023-06-01T06:22:13;11.90;84.40
54202;DHT22;40108;53.152;5.844;2023-06-01T06:24:39;11.90;84.20
54202;DHT22;40108;53.152;5.844;2023-06-01T06:27:07;12.00;84.40
54202;DHT22;40108;53.152;5.844;2023-06-01T06:29:35;12.00;84.00
54202;DHT22;40108;53.152;5.844;2023-06-01T06:32:04;12.00;83.90
54202;DHT22;40108;53.152;5.844;2023-06-01T06:34:33;12.00;84.00
54202;DHT22;40108;53.152;5.844;2023-06-01T06:37:05;12.00;84.20
54202;DHT22;40108;53.152;5.844;2023-06-01T06:39:44;12.00;83.90
54202;DHT22;40108;53.152;5.844;2023-06-01T06:45:01;12.10;83.60
54202;DHT22;40108;53.152;5.844;2023-06-01T06:47:34;12.10;83.30
54202;DHT22;40108;53.152;5.844;2023-06-01T06:53:08;12.10;83.30
54202;DHT22;40108;53.152;5.844;2023-06-01T06:55:46;12.10;83.40
54202;DHT22;40108;53.152;5.844;2023-06-01T06:58:26;12.10;83.60
54202;DHT22;40108;53.152;5.844;2023-06-01T07:01:02;12.20;83.90
54202;DHT22;40108;53.152;5.844;2023-06-01T07:03:41;12.20;84.00
54202;DHT22;40108;53.152;5.844;2023-06-01T07:06:14;12.20;84.10
54202;DHT22;40108;53.152;5.844;2023-06-01T07:08:58;12.30;84.10
54202;DHT22;40108;53.152;5.844;2023-06-01T07:11:41;12.30;83.90
54202;DHT22;40108;53.152;5.844;2023-06-01T07:14:36;12.30;83.80
54202;DHT22;40108;53.152;5.844;2023-06-01T07:17:07;12.30;83.60
54202;DHT22;40108;53.152;5.844;2023-06-01T07:19:56;12.30;83.70
54202;DHT22;40108;53.152;5.844;2023-06-01T07:22:42;12.20;83.60
54202;DHT22;40108;53.152;5.844;2023-06-01T07:25:23;12.30;84.10
54202;DHT22;40108;53.152;5.844;2023-06-01T07:28:02;12.30;84.10
54202;DHT22;40108;53.152;5.844;2023-06-01T07:30:37;12.30;84.10
54202;DHT22;40108;53.152;5.844;2023-06-01T07:33:06;12.30;84.00
54202;DHT22;40108;53.152;5.844;2023-06-01T07:35:32;12.30;83.60
54202;DHT22;40108;53.152;5.844;2023-06-01T07:38:03;12.30;83.80
54202;DHT22;40108;53.152;5.844;2023-06-01T07:40:38;12.40;84.20
54202;DHT22;40108;53.152;5.844;2023-06-01T07:43:03;12.40;85.00
54202;DHT22;40108;53.152;5.844;2023-06-01T07:45:32;12.40;86.10
54202;DHT22;40108;53.152;5.844;2023-06-01T07:48:06;12.40;86.80
54202;DHT22;40108;53.152;5.844;2023-06-01T07:50:34;12.30;87.60
54202;DHT22;40108;53.152;5.844;2023-06-01T07:53:08;12.30;88.20
54202;DHT22;40108;53.152;5.844;2023-06-01T07:55:43;12.20;88.50
54202;DHT22;40108;53.152;5.844;2023-06-01T07:58:12;12.10;88.50
54202;DHT22;40108;53.152;5.844;2023-06-01T08:01:04;12.00;88.20
54202;DHT22;40108;53.152;5.844;2023-06-01T08:03:30;12.10;88.20
54202;DHT22;40108;53.152;5.844;2023-06-01T08:06:05;12.00;88.10
54202;DHT22;40108;53.152;5.844;2023-06-01T08:08:40;12.10;88.30
54202;DHT22;40108;53.152;5.844;2023-06-01T08:11:16;12.10;88.10
54202;DHT22;40108;53.152;5.844;2023-06-01T08:14:11;12.10;87.30
54202;DHT22;40108;53.152;5.844;2023-06-01T08:16:37;12.10;86.90
54202;DHT22;40108;53.152;5.844;2023-06-01T08:19:05;12.20;86.80
54202;DHT22;40108;53.152;5.844;2023-06-01T08:21:41;12.20;86.40
54202;DHT22;40108;53.152;5.844;2023-06-01T08:24:20;12.20;86.20
54202;DHT22;40108;53.152;5.844;2023-06-01T08:27:19;12.20;86.10
54202;DHT22;40108;53.152;5.844;2023-06-01T08:30:00;12.30;85.70
54202;DHT22;40108;53.152;5.844;2023-06-01T08:32:34;12.20;85.40
54202;DHT22;40108;53.152;5.844;2023-06-01T08:35:10;12.20;85.20
54202;DHT22;40108;53.152;5.844;2023-06-01T08:37:57;12.30;85.30
54202;DHT22;40108;53.152;5.844;2023-06-01T08:40:34;12.30;85.30
54202;DHT22;40108;53.152;5.844;2023-06-01T08:43:20;12.30;85.20
54202;DHT22;40108;53.152;5.844;2023-06-01T08:45:48;12.40;84.30
54202;DHT22;40108;53.152;5.844;2023-06-01T08:48:17;12.30;83.90
54202;DHT22;40108;53.152;5.844;2023-06-01T08:50:48;12.40;83.40
54202;DHT22;40108;53.152;5.844;2023-06-01T08:53:19;12.40;83.30
54202;DHT22;40108;53.152;5.844;2023-06-01T08:55:52;12.40;83.40
54202;DHT22;40108;53.152;5.844;2023-06-01T08:58:38;12.40;83.10
54202;DHT22;40108;53.152;5.844;2023-06-01T09:01:27;12.50;82.90
54202;DHT22;40108;53.152;5.844;2023-06-01T09:04:16;12.50;83.00
54202;DHT22;40108;53.152;5.844;2023-06-01T09:09:55;12.60;83.20
54202;DHT22;40108;53.152;5.844;2023-06-01T09:12:35;12.60;82.90
54202;DHT22;40108;53.152;5.844;2023-06-01T09:15:09;12.60;82.70
54202;DHT22;40108;53.152;5.844;2023-06-01T09:17:40;12.60;82.80
54202;DHT22;40108;53.152;5.844;2023-06-01T09:20:26;12.70;82.80
54202;DHT22;40108;53.152;5.844;2023-06-01T09:23:07;12.70;82.50
54202;DHT22;40108;53.152;5.844;2023-06-01T09:25:39;12.70;82.40
54202;DHT22;40108;53.152;5.844;2023-06-01T09:28:20;12.80;82.80
54202;DHT22;40108;53.152;5.844;2023-06-01T09:30:51;12.80;81.70
54202;DHT22;40108;53.152;5.844;2023-06-01T09:33:20;12.80;81.60
54202;DHT22;40108;53.152;5.844;2023-06-01T09:35:59;12.80;82.20
54202;DHT22;40108;53.152;5.844;2023-06-01T09:38:29;12.90;82.00
54202;DHT22;40108;53.152;5.844;2023-06-01T09:41:24;13.00;82.20
54202;DHT22;40108;53.152;5.844;2023-06-01T09:44:02;13.00;81.50
54202;DHT22;40108;53.152;5.844;2023-06-01T09:46:48;13.00;81.50
54202;DHT22;40108;53.152;5.844;2023-06-01T09:49:26;13.10;81.80
54202;DHT22;40108;53.152;5.844;2023-06-01T09:54:51;13.10;81.60
54202;DHT22;40108;53.152;5.844;2023-06-01T09:58:01;13.10;81.80
54202;DHT22;40108;53.152;5.844;2023-06-01T10:03:06;13.10;81.80
54202;DHT22;40108;53.152;5.844;2023-06-01T10:05:39;13.10;82.20
54202;DHT22;40108;53.152;5.844;2023-06-01T10:08:18;13.10;82.30
54202;DHT22;40108;53.152;5.844;2023-06-01T10:11:01;13.10;82.00
54202;DHT22;40108;53.152;5.844;2023-06-01T10:13:43;13.10;82.10
54202;DHT22;40108;53.152;5.844;2023-06-01T10:16:13;13.20;82.30
54202;DHT22;40108;53.152;5.844;2023-06-01T10:18:49;13.10;81.90
54202;DHT22;40108;53.152;5.844;2023-06-01T10:21:17;13.20;81.70
54202;DHT22;40108;53.152;5.844;2023-06-01T10:23:53;13.20;81.90
54202;DHT22;40108;53.152;5.844;2023-06-01T10:26:20;13.20;82.00
54202;DHT22;40108;53.152;5.844;2023-06-01T10:28:48;13.30;81.90
54202;DHT22;40108;53.152;5.844;2023-06-01T10:31:40;13.30;81.40
54202;DHT22;40108;53.152;5.844;2023-06-01T10:34:10;13.30;81.70
54202;DHT22;40108;53.152;5.844;2023-06-01T10:39:24;13.30;81.50
54202;DHT22;40108;53.152;5.844;2023-06-01T10:41:51;13.40;82.00
54202;DHT22;40108;53.152;5.844;2023-06-01T10:47:01;13.40;81.60
54202;DHT22;40108;53.152;5.844;2023-06-01T10:52:31;13.40;81.00
54202;DHT22;40108;53.152;5.844;2023-06-01T10:57:40;13.50;80.70
54202;DHT22;40108;53.152;5.844;2023-06-01T11:02:49;13.60;80.50
54202;DHT22;40108;53.152;5.844;2023-06-01T11:07:59;13.70;80.10
54202;DHT22;40108;53.152;5.844;2023-06-01T11:13:17;13.70;80.40
54202;DHT22;40108;53.152;5.844;2023-06-01T11:19:04;13.70;80.30
54202;DHT22;40108;53.152;5.844;2023-06-01T11:24:15;13.60;80.30
54202;DHT22;40108;53.152;5.844;2023-06-01T11:26:46;13.50;80.40
54202;DHT22;40108;53.152;5.844;2023-06-01T11:31:48;13.40;80.70
54202;DHT22;40108;53.152;5.844;2023-06-01T11:34:18;13.40;80.70
54202;DHT22;40108;53.152;5.844;2023-06-01T11:36:46;13.50;80.80
54202;DHT22;40108;53.152;5.844;2023-06-01T11:39:25;13.50;80.40
54202;DHT22;40108;53.152;5.844;2023-06-01T11:44:37;13.40;79.30
54202;DHT22;40108;53.152;5.844;2023-06-01T11:47:08;13.40;79.10
54202;DHT22;40108;53.152;5.844;2023-06-01T11:49:46;13.40;79.00
54202;DHT22;40108;53.152;5.844;2023-06-01T11:52:18;13.40;78.50
54202;DHT22;40108;53.152;5.844;2023-06-01T11:54:47;13.40;78.90
54202;DHT22;40108;53.152;5.844;2023-06-01T11:57:19;13.50;79.20
54202;DHT22;40108;53.152;5.844;2023-06-01T12:00:14;13.50;77.70
54202;DHT22;40108;53.152;5.844;2023-06-01T12:03:08;13.60;77.90
54202;DHT22;40108;53.152;5.844;2023-06-01T12:05:56;13.60;77.50
54202;DHT22;40108;53.152;5.844;2023-06-01T12:08:39;13.60;77.70
54202;DHT22;40108;53.152;5.844;2023-06-01T12:11:07;13.60;76.80
54202;DHT22;40108;53.152;5.844;2023-06-01T12:13:50;13.70;76.90
54202;DHT22;40108;53.152;5.844;2023-06-01T12:19:25;13.60;76.40
54202;DHT22;40108;53.152;5.844;2023-06-01T12:24:53;13.60;76.60
54202;DHT22;40108;53.152;5.844;2023-06-01T12:27:22;13.60;76.60
54202;DHT22;40108;53.152;5.844;2023-06-01T12:30:00;13.60;77.20
54202;DHT22;40108;53.152;5.844;2023-06-01T12:32:42;13.50;76.70
54202;DHT22;40108;53.152;5.844;2023-06-01T12:35:12;13.60;77.20
54202;DHT22;40108;53.152;5.844;2023-06-01T12:38:10;13.60;77.40
54202;DHT22;40108;53.152;5.844;2023-06-01T12:41:05;13.60;76.80
54202;DHT22;40108;53.152;5.844;2023-06-01T12:43:53;13.60;77.10
54202;DHT22;40108;53.152;5.844;2023-06-01T12:46:37;13.60;76.90
54202;DHT22;40108;53.152;5.844;2023-06-01T12:49:16;13.50;77.40
54202;DHT22;40108;53.152;5.844;2023-06-01T12:51:56;13.50;77.80
54202;DHT22;40108;53.152;5.844;2023-06-01T12:54:27;13.50;77.80
54202;DHT22;40108;53.152;5.844;2023-06-01T12:57:30;13.50;77.90
54202;DHT22;40108;53.152;5.844;2023-06-01T12:59:56;13.60;77.80
54202;DHT22;40108;53.152;5.844;2023-06-01T13:02:42;13.50;77.40
54202;DHT22;40108;53.152;5.844;2023-06-01T13:05:18;13.50;77.00
54202;DHT22;40108;53.152;5.844;2023-06-01T13:07:56;13.50;77.00
54202;DHT22;40108;53.152;5.844;2023-06-01T13:10:24;13.60;76.60
54202;DHT22;40108;53.152;5.844;2023-06-01T13:13:16;13.60;77.50
54202;DHT22;40108;53.152;5.844;2023-06-01T13:16:03;13.60;78.10
54202;DHT22;40108;53.152;5.844;2023-06-01T13:18:32;13.50;79.00
54202;DHT22;40108;53.152;5.844;2023-06-01T13:21:01;13.50;79.50
54202;DHT22;40108;53.152;5.844;2023-06-01T13:23:50;13.40;79.80
54202;DHT22;40108;53.152;5.844;2023-06-01T13:26:36;13.50;80.00
54202;DHT22;40108;53.152;5.844;2023-06-01T13:29:14;13.40;80.10
54202;DHT22;40108;53.152;5.844;2023-06-01T13:31:57;13.40;80.30
54202;DHT22;40108;53.152;5.844;2023-06-01T13:34:25;13.40;80.60
54202;DHT22;40108;53.152;5.844;2023-06-01T13:37:37;13.30;80.00
54202;DHT22;40108;53.152;5.844;2023-06-01T13:40:09;13.30;79.90
54202;DHT22;40108;53.152;5.844;2023-06-01T13:42:36;13.30;79.70
54202;DHT22;40108;53.152;5.844;2023-06-01T13:45:23;13.40;79.70
54202;DHT22;40108;53.152;5.844;2023-06-01T13:47:59;13.30;79.30
54202;DHT22;40108;53.152;5.844;2023-06-01T13:50:27;13.30;78.50
54202;DHT22;40108;53.152;5.844;2023-06-01T13:53:16;13.30;77.80
54202;DHT22;40108;53.152;5.844;2023-06-01T13:56:24;13.30;78.20
54202;DHT22;40108;53.152;5.844;2023-06-01T13:58:53;13.40;77.80
54202;DHT22;40108;53.152;5.844;2023-06-01T14:01:24;13.40;78.10
54202;DHT22;40108;53.152;5.844;2023-06-01T14:04:10;13.30;78.40
54202;DHT22;40108;53.152;5.844;2023-06-01T14:10:21;13.20;78.50
54202;DHT22;40108;53.152;5.844;2023-06-01T14:13:07;13.20;79.10
54202;DHT22;40108;53.152;5.844;2023-06-01T14:15:46;13.20;78.30
54202;DHT22;40108;53.152;5.844;2023-06-01T14:18:21;13.30;78.00
54202;DHT22;40108;53.152;5.844;2023-06-01T14:20:49;13.40;77.50
54202;DHT22;40108;53.152;5.844;2023-06-01T14:23:23;13.30;77.20
54202;DHT22;40108;53.152;5.844;2023-06-01T14:25:59;13.30;77.10
54202;DHT22;40108;53.152;5.844;2023-06-01T14:28:43;13.20;76.60
54202;DHT22;40108;53.152;5.844;2023-06-01T14:31:30;13.20;76.70
54202;DHT22;40108;53.152;5.844;2023-06-01T14:33:58;13.30;76.40
54202;DHT22;40108;53.152;5.844;2023-06-01T14:36:59;13.30;76.20
54202;DHT22;40108;53.152;5.844;2023-06-01T14:42:33;13.40;76.50
54202;DHT22;40108;53.152;5.844;2023-06-01T14:45:01;13.50;76.30
54202;DHT22;40108;53.152;5.844;2023-06-01T14:47:47;13.50;76.70
54202;DHT22;40108;53.152;5.844;2023-06-01T14:50:44;13.50;76.80
54202;DHT22;40108;53.152;5.844;2023-06-01T14:53:22;13.40;77.60
54202;DHT22;40108;53.152;5.844;2023-06-01T14:56:12;13.30;78.30
54202;DHT22;40108;53.152;5.844;2023-06-01T14:58:53;13.20;79.20
54202;DHT22;40108;53.152;5.844;2023-06-01T15:01:31;13.20;79.10
54202;DHT22;40108;53.152;5.844;2023-06-01T15:04:05;13.20;78.90
54202;DHT22;40108;53.152;5.844;2023-06-01T15:06:38;13.20;79.10
54202;DHT22;40108;53.152;5.844;2023-06-01T15:09:09;13.20;78.50
54202;DHT22;40108;53.152;5.844;2023-06-01T15:11:48;13.20;77.50
54202;DHT22;40108;53.152;5.844;2023-06-01T15:14:19;13.30;77.80
54202;DHT22;40108;53.152;5.844;2023-06-01T15:17:11;13.40;77.10
54202;DHT22;40108;53.152;5.844;2023-06-01T15:20:00;13.50;77.00
54202;DHT22;40108;53.152;5.844;2023-06-01T15:22:45;13.50;77.40
54202;DHT22;40108;53.152;5.844;2023-06-01T15:25:14;13.50;77.50
54202;DHT22;40108;53.152;5.844;2023-06-01T15:28:26;13.50;77.00
54202;DHT22;40108;53.152;5.844;2023-06-01T15:30:59;13.50;77.80
54202;DHT22;40108;53.152;5.844;2023-06-01T15:33:45;13.50;77.60
54202;DHT22;40108;53.152;5.844;2023-06-01T15:36:32;13.40;77.50
54202;DHT22;40108;53.152;5.844;2023-06-01T15:39:10;13.30;78.00
54202;DHT22;40108;53.152;5.844;2023-06-01T15:41:48;13.30;78.90
54202;DHT22;40108;53.152;5.844;2023-06-01T15:44:25;13.30;78.30
54202;DHT22;40108;53.152;5.844;2023-06-01T15:47:42;13.30;78.20
54202;DHT22;40108;53.152;5.844;2023-06-01T15:50:11;13.30;78.20
54202;DHT22;40108;53.152;5.844;2023-06-01T15:52:53;13.40;77.70
54202;DHT22;40108;53.152;5.844;2023-06-01T15:55:47;13.30;77.50
54202;DHT22;40108;53.152;5.844;2023-06-01T15:58:26;13.20;76.80
54202;DHT22;40108;53.152;5.844;2023-06-01T16:00:56;13.20;76.80
54202;DHT22;40108;53.152;5.844;2023-06-01T16:03:37;13.10;76.10
54202;DHT22;40108;53.152;5.844;2023-06-01T16:06:27;13.10;76.40
54202;DHT22;40108;53.152;5.844;2023-06-01T16:09:04;13.10;76.20
54202;DHT22;40108;53.152;5.844;2023-06-01T16:11:30;13.10;76.70
54202;DHT22;40108;53.152;5.844;2023-06-01T16:14:01;13.10;76.60
54202;DHT22;40108;53.152;5.844;2023-06-01T16:16:29;13.10;76.20
54202;DHT22;40108;53.152;5.844;2023-06-01T16:19:14;13.10;75.50
54202;DHT22;40108;53.152;5.844;2023-06-01T16:21:49;13.10;77.40
54202;DHT22;40108;53.152;5.844;2023-06-01T16:24:33;13.00;78.70
54202;DHT22;40108;53.152;5.844;2023-06-01T16:27:04;12.90;78.90
54202;DHT22;40108;53.152;5.844;2023-06-01T16:29:35;12.80;78.70
54202;DHT22;40108;53.152;5.844;2023-06-01T16:32:21;12.80;78.80
54202;DHT22;40108;53.152;5.844;2023-06-01T16:35:03;12.70;79.00
54202;DHT22;40108;53.152;5.844;2023-06-01T16:37:34;12.70;78.80
54202;DHT22;40108;53.152;5.844;2023-06-01T16:40:13;12.70;78.40
54202;DHT22;40108;53.152;5.844;2023-06-01T16:42:59;12.70;79.00
54202;DHT22;40108;53.152;5.844;2023-06-01T16:45:49;12.70;78.60
54202;DHT22;40108;53.152;5.844;2023-06-01T16:55:48;12.70;78.90
54202;DHT22;40108;53.152;5.844;2023-06-01T16:58:34;12.60;78.70
54202;DHT22;40108;53.152;5.844;2023-06-01T17:00:59;12.50;78.80
54202;DHT22;40108;53.152;5.844;2023-06-01T17:03:25;12.50;78.90
54202;DHT22;40108;53.152;5.844;2023-06-01T17:12:39;12.50;77.90
54202;DHT22;40108;53.152;5.844;2023-06-01T17:15:05;12.50;77.60
54202;DHT22;40108;53.152;5.844;2023-06-01T17:17:31;12.50;77.50
54202;DHT22;40108;53.152;5.844;2023-06-01T17:19:58;12.50;77.70
54202;DHT22;40108;53.152;5.844;2023-06-01T17:22:24;12.50;78.20
54202;DHT22;40108;53.152;5.844;2023-06-01T17:24:50;12.50;78.30
54202;DHT22;40108;53.152;5.844;2023-06-01T17:27:16;12.50;77.90
54202;DHT22;40108;53.152;5.844;2023-06-01T17:29:42;12.40;78.10
54202;DHT22;40108;53.152;5.844;2023-06-01T17:32:07;12.40;78.30
54202;DHT22;40108;53.152;5.844;2023-06-01T17:34:35;12.40;78.20
54202;DHT22;40108;53.152;5.844;2023-06-01T17:37:01;12.30;77.90
54202;DHT22;40108;53.152;5.844;2023-06-01T17:39:29;12.40;78.50
54202;DHT22;40108;53.152;5.844;2023-06-01T17:41:55;12.30;79.50
54202;DHT22;40108;53.152;5.844;2023-06-01T17:44:21;12.20;79.90
54202;DHT22;40108;53.152;5.844;2023-06-01T17:46:47;12.20;80.00
54202;DHT22;40108;53.152;5.844;2023-06-01T17:49:16;12.20;80.30
54202;DHT22;40108;53.152;5.844;2023-06-01T17:51:41;12.20;80.50
54202;DHT22;40108;53.152;5.844;2023-06-01T17:54:08;12.20;80.30
54202;DHT22;40108;53.152;5.844;2023-06-01T17:56:34;12.10;80.50
54202;DHT22;40108;53.152;5.844;2023-06-01T17:59:03;12.10;78.90
54202;DHT22;40108;53.152;5.844;2023-06-01T18:01:28;12.10;77.60
54202;DHT22;40108;53.152;5.844;2023-06-01T18:03:57;12.00;76.80
54202;DHT22;40108;53.152;5.844;2023-06-01T18:06:24;12.00;76.20
54202;DHT22;40108;53.152;5.844;2023-06-01T18:08:50;12.00;76.40
54202;DHT22;40108;53.152;5.844;2023-06-01T18:11:19;12.00;76.50
54202;DHT22;40108;53.152;5.844;2023-06-01T18:13:47;12.00;77.00
54202;DHT22;40108;53.152;5.844;2023-06-01T18:16:43;11.90;77.50
54202;DHT22;40108;53.152;5.844;2023-06-01T18:20:04;12.00;78.20
54202;DHT22;40108;53.152;5.844;2023-06-01T18:22:30;12.00;78.50
54202;DHT22;40108;53.152;5.844;2023-06-01T18:24:56;11.90;78.30
54202;DHT22;40108;53.152;5.844;2023-06-01T18:27:22;11.90;77.60
54202;DHT22;40108;53.152;5.844;2023-06-01T18:29:48;11.90;77.80
54202;DHT22;40108;53.152;5.844;2023-06-01T18:32:23;11.90;76.70
54202;DHT22;40108;53.152;5.844;2023-06-01T18:34:56;11.80;75.10
54202;DHT22;40108;53.152;5.844;2023-06-01T18:37:22;11.70;75.40
54202;DHT22;40108;53.152;5.844;2023-06-01T18:40:14;11.70;75.30
54202;DHT22;40108;53.152;5.844;2023-06-01T18:42:59;11.70;75.90
54202;DHT22;40108;53.152;5.844;2023-06-01T18:48:56;11.70;75.90
54202;DHT22;40108;53.152;5.844;2023-06-01T18:51:25;11.70;76.40